Time;durP1;ratioP1;P1;durP2;ratioP2;P2;SDS_P1;SDS_P2;PMS_P1;PMS_P2;Temp;Humidity;BMP_temperature;BMP_pressure;BME280_temperature;BME280_humidity;BME280_pressure;Samples;Min_cycle;Max_cycle;Signal;HPM_P1;HPM_P2
2021/05/14 00:01:39;;;;;;;14.60;11.77;;;;;;;11.33;71.02;100203.56;5099120;28;20561;-62
2021/05/14 00:04:05;;;;;;;14.90;11.43;;;;;;;11.04;72.16;100203.59;5099059;28;20176;-62
2021/05/14 00:06:30;;;;;;;15.10;10.80;;;;;;;11.31;71.68;100200.06;5099685;28;20164;-62
2021/05/14 00:08:56;;;;;;;14.93;12.37;;;;;;;11.32;71.75;100199.22;5108580;28;20195;-62
2021/05/14 00:11:21;;;;;;;18.27;11.97;;;;;;;11.25;71.08;100202.72;5119381;28;20178;-63
2021/05/14 00:13:46;;;;;;;13.87;11.33;;;;;;;11.41;70.68;100187.91;5119940;28;20167;-63
2021/05/14 00:16:12;;;;;;;19.27;11.80;;;;;;;11.21;71.23;100194.00;5119298;28;20440;-63
2021/05/14 00:18:37;;;;;;;14.47;10.20;;;;;;;11.06;72.28;100200.13;5119441;28;20175;-63
2021/05/14 00:21:03;;;;;;;19.17;12.50;;;;;;;11.39;70.97;100202.69;5119505;28;20197;-63
2021/05/14 00:23:28;;;;;;;16.80;13.03;;;;;;;11.41;71.12;100201.81;5113148;28;20220;-63
2021/05/14 00:25:54;;;;;;;14.17;11.80;;;;;;;11.37;71.04;100200.06;5098794;28;20794;-63
2021/05/14 00:28:19;;;;;;;14.60;10.70;;;;;;;11.37;71.43;100199.22;5099051;28;20231;-63
2021/05/14 00:30:44;;;;;;;13.10;10.30;;;;;;;11.14;71.37;100194.91;5099855;28;20180;-62
2021/05/14 00:33:10;;;;;;;15.50;10.33;;;;;;;11.17;71.73;100200.09;5098645;28;20195;-63
2021/05/14 00:35:35;;;;;;;16.30;11.23;;;;;;;11.54;70.51;100192.22;5099028;28;20541;-63
2021/05/14 00:38:01;;;;;;;18.67;12.00;;;;;;;11.22;71.35;100194.91;5098702;28;20206;-63
2021/05/14 00:40:26;;;;;;;16.10;11.27;;;;;;;11.15;71.53;100187.94;5098646;28;20184;-63
2021/05/14 00:42:51;;;;;;;15.40;11.80;;;;;;;11.44;70.78;100191.34;5098860;28;20187;-62
2021/05/14 00:45:17;;;;;;;15.23;12.10;;;;;;;11.36;70.92;100189.66;5097705;28;20164;-63
2021/05/14 00:47:42;;;;;;;13.33;11.43;;;;;;;10.96;72.61;100201.03;5098423;28;20273;-63
2021/05/14 00:50:08;;;;;;;18.77;11.70;;;;;;;11.56;70.28;100194.81;5098866;28;20195;-63
2021/05/14 00:52:33;;;;;;;15.87;13.40;;;;;;;11.17;71.81;100194.03;5097735;28;20200;-63
2021/05/14 00:54:58;;;;;;;14.63;13.03;;;;;;;11.34;71.41;100187.03;5098638;28;20389;-63
2021/05/14 00:57:25;;;;;;;19.53;12.90;;;;;;;11.59;70.16;100179.13;5098760;28;20171;-62
2021/05/14 00:59:50;;;;;;;18.00;12.80;;;;;;;11.37;70.80;100189.63;5098411;28;20194;-62
2021/05/14 01:02:17;;;;;;;13.80;11.80;;;;;;;11.63;70.70;100186.06;5098410;28;20418;-63
2021/05/14 01:04:43;;;;;;;14.37;12.37;;;;;;;11.54;70.33;100188.72;5098861;28;20171;-63
2021/05/14 01:07:10;;;;;;;20.40;13.60;;;;;;;11.24;72.14;100198.34;5098134;28;20385;-63
2021/05/14 01:09:37;;;;;;;16.30;12.03;;;;;;;11.21;72.13;100190.53;5098339;28;20172;-63
2021/05/14 01:12:03;;;;;;;17.77;13.00;;;;;;;11.54;70.64;100183.50;5098798;28;20414;-63
2021/05/14 01:14:28;;;;;;;15.37;13.40;;;;;;;11.61;70.65;100193.06;5098325;28;20667;-63
2021/05/14 01:16:54;;;;;;;19.80;12.73;;;;;;;11.37;71.11;100187.03;5098214;28;20225;-62
2021/05/14 01:19:19;;;;;;;16.10;13.90;;;;;;;11.27;71.43;100185.28;5098480;28;20207;-62
2021/05/14 01:21:45;;;;;;;17.37;13.90;;;;;;;11.43;71.24;100183.53;5098036;28;20521;-62
2021/05/14 01:24:10;;;;;;;18.90;15.17;;;;;;;11.47;71.25;100185.25;5101747;28;20227;-63
2021/05/14 01:26:36;;;;;;;17.67;14.13;;;;;;;11.40;71.35;100189.63;5119047;28;20167;-63
2021/05/14 01:29:03;;;;;;;17.90;14.20;;;;;;;11.40;72.01;100189.63;5118411;28;20471;-63
2021/05/14 01:31:29;;;;;;;26.10;15.77;;;;;;;11.88;69.75;100185.97;5118427;28;20192;-63
2021/05/14 01:33:54;;;;;;;18.53;13.70;;;;;;;11.62;70.08;100193.06;5118951;28;20413;-62
2021/05/14 01:36:20;;;;;;;17.33;15.03;;;;;;;11.27;71.37;100196.63;5118463;28;20182;-63
2021/05/14 01:38:45;;;;;;;17.30;14.00;;;;;;;11.59;70.83;100192.19;5115635;28;20195;-63
2021/05/14 01:41:11;;;;;;;15.47;13.70;;;;;;;11.41;71.45;100196.59;5098574;28;20251;-63
2021/05/14 01:43:36;;;;;;;20.40;14.90;;;;;;;11.60;70.46;100196.53;5098279;28;20172;-63
2021/05/14 01:46:03;;;;;;;17.70;13.47;;;;;;;11.60;70.18;100191.31;5097921;28;20180;-62
2021/05/14 01:48:28;;;;;;;19.50;15.30;;;;;;;11.80;70.08;100188.63;5111990;28;20207;-63
2021/05/14 01:50:54;;;;;;;17.87;14.63;;;;;;;11.68;70.14;100189.53;5117937;28;20408;-63
2021/05/14 01:53:19;;;;;;;18.43;14.03;;;;;;;11.37;71.14;100188.78;5117508;28;20183;-63
2021/05/14 01:55:45;;;;;;;21.50;15.30;;;;;;;11.82;69.94;100184.25;5103589;28;20187;-64
2021/05/14 01:58:10;;;;;;;21.80;16.07;;;;;;;11.55;71.01;100185.25;5112857;28;20236;-63
2021/05/14 02:00:35;;;;;;;20.50;16.83;;;;;;;11.76;70.15;100185.16;5121841;28;20433;-63
2021/05/14 02:03:01;;;;;;;25.07;16.23;;;;;;;11.44;71.45;100174.81;5104122;28;20439;-63
2021/05/14 02:05:26;;;;;;;22.97;16.23;;;;;;;11.29;71.95;100176.59;5101133;28;20172;-63
2021/05/14 02:07:54;;;;;;;23.60;15.87;;;;;;;11.66;70.20;100169.53;5101626;28;20287;-63
2021/05/14 02:10:20;;;;;;;18.47;16.40;;;;;;;11.50;71.50;100176.53;5101597;28;20243;-63
2021/05/14 02:12:45;;;;;;;22.10;17.00;;;;;;;11.53;70.78;100179.13;5101103;28;20485;-63
2021/05/14 02:15:11;;;;;;;19.00;15.93;;;;;;;11.42;71.47;100174.84;5100952;28;20215;-63
2021/05/14 02:17:37;;;;;;;20.10;15.90;;;;;;;11.01;72.20;100174.91;5101333;28;20160;-64
2021/05/14 02:20:05;;;;;;;20.70;16.07;;;;;;;11.52;70.81;100161.75;5100960;28;20389;-62
2021/05/14 02:22:31;;;;;;;21.40;16.63;;;;;;;11.58;70.75;100166.94;5101006;28;20549;-63
2021/05/14 02:24:56;;;;;;;23.13;16.90;;;;;;;11.54;70.45;100180.88;5100887;28;20493;-63
2021/05/14 02:27:21;;;;;;;23.67;16.60;;;;;;;10.93;72.37;100172.31;5101144;28;20204;-62
2021/05/14 02:29:47;;;;;;;22.97;17.63;;;;;;;11.26;70.95;100178.38;5101265;28;20179;-64
2021/05/14 02:32:13;;;;;;;22.87;18.30;;;;;;;11.11;71.32;100167.06;5101179;28;20545;-62
2021/05/14 02:34:39;;;;;;;21.00;16.53;;;;;;;11.29;71.24;100170.53;5101080;28;20180;-63
2021/05/14 02:37:04;;;;;;;23.33;16.93;;;;;;;11.34;71.44;100163.56;5103306;28;20517;-63
2021/05/14 02:39:30;;;;;;;27.47;17.70;;;;;;;11.31;71.31;100173.13;5121303;28;20206;-63
2021/05/14 02:41:55;;;;;;;23.60;17.70;;;;;;;11.29;71.03;100165.31;5121079;28;20184;-63
2021/05/14 02:44:20;;;;;;;24.90;18.00;;;;;;;11.40;70.97;100160.91;5116831;28;20214;-62
2021/05/14 02:46:47;;;;;;;27.80;17.67;;;;;;;11.33;70.84;100160.97;5100687;28;20259;-63
2021/05/14 02:49:12;;;;;;;21.53;16.50;;;;;;;11.32;71.49;100159.22;5100613;28;20200;-63
2021/05/14 02:51:38;;;;;;;25.73;18.20;;;;;;;11.55;70.48;100166.97;5101188;28;20417;-63
2021/05/14 02:54:03;;;;;;;28.40;17.83;;;;;;;11.63;70.19;100162.56;5100621;28;20178;-62
2021/05/14 02:56:30;;;;;;;26.70;17.90;;;;;;;11.40;70.90;100167.88;5099715;28;20172;-63
2021/05/14 02:58:56;;;;;;;20.90;16.07;;;;;;;11.13;71.23;100161.84;5100234;28;20164;-62
2021/05/14 03:01:21;;;;;;;24.20;17.23;;;;;;;10.89;72.25;100166.25;5100281;28;20634;-63
2021/05/14 03:03:46;;;;;;;25.53;17.20;;;;;;;11.26;71.37;100160.97;5100316;28;20173;-63
2021/05/14 03:06:12;;;;;;;24.80;16.37;;;;;;;11.02;71.95;100171.44;5100488;28;20169;-63
2021/05/14 03:08:37;;;;;;;25.07;16.33;;;;;;;11.01;72.25;100167.09;5099921;28;20207;-63
2021/05/14 03:11:03;;;;;;;31.87;16.03;;;;;;;11.29;70.72;100166.16;5100138;28;20186;-63
2021/05/14 03:13:28;;;;;;;24.40;18.37;;;;;;;11.38;70.78;100167.91;5100624;28;20168;-62
2021/05/14 03:15:54;;;;;;;24.97;17.07;;;;;;;11.44;70.75;100161.78;5100165;28;20407;-62
2021/05/14 03:18:19;;;;;;;24.00;17.20;;;;;;;11.20;71.63;100165.31;5100511;28;20172;-63
2021/05/14 03:20:44;;;;;;;19.10;16.00;;;;;;;10.86;72.73;100168.84;5100462;28;20174;-62
2021/05/14 03:23:10;;;;;;;25.50;16.70;;;;;;;11.41;70.68;100164.41;5100202;28;20180;-62
2021/05/14 03:25:36;;;;;;;19.57;15.87;;;;;;;11.28;71.02;100163.56;5099839;28;20224;-62
2021/05/14 03:28:01;;;;;;;21.83;14.70;;;;;;;11.16;71.22;100166.19;5099974;28;20553;-63
2021/05/14 03:30:26;;;;;;;26.70;15.60;;;;;;;11.05;71.95;100161.84;5099731;28;20172;-63
2021/05/14 03:32:52;;;;;;;24.00;15.60;;;;;;;10.98;72.21;100167.09;5099617;28;20172;-62
2021/05/14 03:35:17;;;;;;;22.80;17.00;;;;;;;11.18;71.22;100161.88;5100272;28;20214;-63
2021/05/14 03:37:42;;;;;;;25.70;16.40;;;;;;;11.33;70.61;100161.81;5111559;28;20221;-63
2021/05/14 03:40:17;;;;;;;23.70;16.50;;;;;;;11.26;71.36;100163.56;5120093;28;20525;-62
2021/05/14 03:42:42;;;;;;;25.30;17.47;;;;;;;11.06;71.71;100170.56;5119874;28;20454;-63
2021/05/14 03:45:09;;;;;;;26.80;16.97;;;;;;;11.20;71.40;100162.72;5120061;28;20428;-63
2021/05/14 03:47:35;;;;;;;30.03;18.20;;;;;;;11.17;71.06;100153.16;5120100;28;20241;-63
2021/05/14 03:50:00;;;;;;;22.33;16.40;;;;;;;11.39;70.22;100156.59;5119751;28;20418;-63
2021/05/14 03:52:25;;;;;;;37.93;20.87;;;;;;;11.44;70.26;100154.81;5117333;28;20551;-63
2021/05/14 03:54:51;;;;;;;30.57;17.30;;;;;;;11.44;70.41;100154.81;5120292;28;20245;-63
2021/05/14 03:57:16;;;;;;;27.77;17.90;;;;;;;11.45;70.11;100153.09;5119571;28;20172;-62
2021/05/14 03:59:42;;;;;;;29.60;17.73;;;;;;;11.60;69.69;100155.63;5119734;28;20190;-63
2021/05/14 04:02:09;;;;;;;41.43;20.83;;;;;;;11.42;70.63;100156.56;5099499;28;20180;-62
2021/05/14 04:04:34;;;;;;;54.97;34.83;;;;;;;11.24;70.79;100156.63;5099142;28;20438;-62
2021/05/14 04:07:02;;;;;;;24.43;16.80;;;;;;;10.96;72.27;100151.47;5099128;28;20442;-63
2021/05/14 04:09:31;;;;;;;26.10;17.17;;;;;;;11.27;71.06;100146.16;5099550;28;20231;-63
2021/05/14 04:14:31;;;;;;;35.90;20.80;;;;;;;11.42;70.69;100151.34;5099062;28;20418;-63
2021/05/14 04:17:04;;;;;;;28.47;16.17;;;;;;;10.98;71.81;100152.31;5098943;28;20421;-63
2021/05/14 04:19:29;;;;;;;26.27;16.17;;;;;;;10.77;72.49;100156.69;5098859;28;20442;-63
2021/05/14 04:21:57;;;;;;;24.30;17.47;;;;;;;11.19;71.47;100155.75;5099090;28;20736;-63
2021/05/14 04:24:23;;;;;;;27.80;18.27;;;;;;;10.76;72.32;100157.56;5098569;28;20357;-63
2021/05/14 04:26:49;;;;;;;29.87;15.87;;;;;;;11.03;72.15;100171.44;5101887;28;20521;-63
2021/05/14 04:29:15;;;;;;;35.30;25.50;;;;;;;11.67;70.00;100168.66;5118476;28;20522;-62
2021/05/14 04:31:42;;;;;;;32.50;16.90;;;;;;;11.42;70.33;100173.94;5112684;28;20449;-64
2021/05/14 04:34:08;;;;;;;26.83;17.07;;;;;;;11.25;70.45;100177.47;5098457;28;20207;-63
2021/05/14 04:36:33;;;;;;;41.43;29.50;;;;;;;11.44;69.85;100175.69;5101975;28;20469;-62
2021/05/14 04:38:59;;;;;;;24.47;17.80;;;;;;;11.62;68.84;100176.50;5098358;28;20573;-62
2021/05/14 04:41:24;;;;;;;26.23;15.40;;;;;;;11.28;70.13;100174.88;5098203;28;20172;-62
2021/05/14 04:43:49;;;;;;;21.87;14.97;;;;;;;11.20;70.45;100170.53;5098394;28;20183;-61
2021/05/14 04:46:15;;;;;;;21.40;14.40;;;;;;;11.46;69.58;100163.50;5098077;28;20218;-63
2021/05/14 04:48:40;;;;;;;22.00;16.47;;;;;;;11.45;68.89;100167.00;5126133;27;20214;-62
2021/05/14 04:51:07;;;;;;;23.67;17.17;;;;;;;11.56;69.38;100163.50;5119736;27;20540;-63
2021/05/14 04:53:35;;;;;;;22.40;16.90;;;;;;;11.22;69.85;100164.44;5100099;28;20180;-62
2021/05/14 04:56:00;;;;;;;27.77;15.67;;;;;;;11.73;68.54;100166.91;5098176;28;20418;-62
2021/05/14 04:58:26;;;;;;;20.93;13.87;;;;;;;11.68;68.62;100168.66;5098636;28;20791;-62
2021/05/14 05:00:51;;;;;;;27.00;16.23;;;;;;;11.50;69.15;100167.00;5098111;28;20176;-63
2021/05/14 05:03:16;;;;;;;22.30;13.73;;;;;;;11.69;68.01;100173.00;5098279;28;20291;-63
2021/05/14 05:05:42;;;;;;;17.60;13.53;;;;;;;11.10;69.34;100164.47;5098814;28;20597;-62
2021/05/14 05:08:07;;;;;;;21.73;15.03;;;;;;;11.55;68.38;100161.75;5114109;28;20545;-63
2021/05/14 05:10:32;;;;;;;26.40;14.30;;;;;;;11.54;68.97;100165.22;5113589;28;20187;-63
2021/05/14 05:12:57;;;;;;;16.83;12.00;;;;;;;11.50;68.74;100155.66;5101874;28;20273;-63
2021/05/14 05:15:23;;;;;;;15.70;11.77;;;;;;;11.36;68.79;100159.19;5105718;28;20663;-63
2021/05/14 05:17:48;;;;;;;30.47;18.80;;;;;;;11.35;69.16;100154.88;5118492;28;20168;-63
2021/05/14 05:20:14;;;;;;;24.13;14.40;;;;;;;11.31;69.04;100158.31;5119062;28;20240;-62
2021/05/14 05:22:39;;;;;;;19.47;13.80;;;;;;;11.19;69.50;100164.47;5102875;28;20180;-64
2021/05/14 05:25:05;;;;;;;24.00;16.07;;;;;;;11.58;68.37;100161.72;5108596;28;20235;-63
2021/05/14 05:27:30;;;;;;;15.30;11.90;;;;;;;11.27;68.69;100160.09;5118623;28;20214;-63
2021/05/14 05:29:56;;;;;;;17.90;11.50;;;;;;;11.46;68.54;100168.72;5118034;28;20282;-62
2021/05/14 05:32:21;;;;;;;21.30;11.83;;;;;;;11.29;69.63;100174.00;5103487;28;20187;-62
2021/05/14 05:34:47;;;;;;;19.63;12.10;;;;;;;11.45;68.03;100172.22;5103663;28;20567;-62
2021/05/14 05:37:12;;;;;;;16.47;12.20;;;;;;;11.59;68.25;100173.91;5101932;28;20256;-62
2021/05/14 05:39:38;;;;;;;25.83;14.47;;;;;;;11.43;67.91;100179.19;5102039;28;20555;-62
2021/05/14 05:42:03;;;;;;;19.53;12.23;;;;;;;11.11;68.52;100177.50;5103439;28;20176;-62
2021/05/14 05:44:28;;;;;;;17.50;12.00;;;;;;;11.66;67.31;100183.44;5103316;28;20175;-62
2021/05/14 05:46:54;;;;;;;20.57;11.73;;;;;;;11.38;67.57;100178.34;5126539;27;20589;-63
2021/05/14 05:49:21;;;;;;;19.37;13.00;;;;;;;11.43;67.52;100179.19;5125656;27;20202;-62
2021/05/14 05:51:46;;;;;;;20.03;12.50;;;;;;;11.67;67.10;100179.97;5142446;27;20271;-62
2021/05/14 05:54:11;;;;;;;17.17;11.17;;;;;;;11.88;67.03;100180.75;5133603;27;20494;-62
2021/05/14 05:56:37;;;;;;;22.17;12.60;;;;;;;11.71;66.58;100188.66;5122119;28;20534;-63
2021/05/14 05:59:03;;;;;;;24.70;11.40;;;;;;;11.88;66.51;100181.63;5121882;28;20175;-63
2021/05/14 06:01:28;;;;;;;18.57;12.00;;;;;;;11.58;66.74;100191.31;5116106;28;20194;-62
2021/05/14 06:03:54;;;;;;;19.43;11.27;;;;;;;11.47;67.02;100185.25;5126771;27;20167;-63
2021/05/14 06:06:20;;;;;;;17.53;11.93;;;;;;;11.45;67.42;100192.22;5121644;28;20176;-63
2021/05/14 06:08:45;;;;;;;16.67;10.50;;;;;;;11.77;66.97;100197.34;5119970;28;20528;-64
2021/05/14 06:11:10;;;;;;;13.40;10.50;;;;;;;12.00;66.03;100199.03;5121585;28;20568;-64
2021/05/14 06:13:36;;;;;;;14.90;10.83;;;;;;;12.06;67.00;100198.97;5121377;28;20183;-64
2021/05/14 06:16:03;;;;;;;16.07;10.13;;;;;;;12.04;65.19;100200.75;5121431;28;20230;-63
2021/05/14 06:18:35;;;;;;;20.80;11.20;;;;;;;12.00;65.41;100195.53;5109231;28;20176;-63
2021/05/14 06:21:00;;;;;;;16.37;10.27;;;;;;;12.05;65.34;100199.84;5102025;28;20525;-64
2021/05/14 06:23:26;;;;;;;18.20;11.37;;;;;;;12.32;64.66;100194.50;5100672;28;20508;-64
2021/05/14 06:25:51;;;;;;;20.87;10.50;;;;;;;12.52;64.01;100195.22;5117101;28;20254;-63
2021/05/14 06:28:23;;;;;;;16.90;10.27;;;;;;;11.78;65.94;100192.97;5105050;28;20269;-65
2021/05/14 06:30:49;;;;;;;18.40;10.83;;;;;;;12.55;63.92;100189.94;5102516;28;20215;-64
2021/05/14 06:33:15;;;;;;;14.77;9.77;;;;;;;12.28;64.68;100186.66;5100985;28;20410;-64
2021/05/14 06:35:41;;;;;;;17.03;11.20;;;;;;;12.34;64.46;100193.59;5100650;28;20810;-65
2021/05/14 06:38:06;;;;;;;18.70;10.73;;;;;;;11.97;65.38;100193.78;5100923;28;20157;-65
2021/05/14 06:40:32;;;;;;;24.80;11.83;;;;;;;12.49;64.24;100199.59;5100674;28;20399;-65
2021/05/14 06:42:57;;;;;;;19.27;10.23;;;;;;;12.01;65.26;100202.50;5104280;28;20175;-64
2021/05/14 06:45:23;;;;;;;15.60;10.00;;;;;;;12.27;64.35;100200.63;5119557;28;20589;-65
2021/05/14 06:47:48;;;;;;;14.63;10.00;;;;;;;11.83;65.53;100199.06;5108951;28;20203;-65
2021/05/14 06:50:13;;;;;;;12.73;9.40;;;;;;;12.36;65.26;100188.38;5120810;28;20171;-64
2021/05/14 06:52:39;;;;;;;16.77;10.73;;;;;;;12.66;62.99;100186.41;5107497;28;20231;-65
2021/05/14 06:55:06;;;;;;;18.33;10.90;;;;;;;12.30;64.76;100191.88;5100240;28;20204;-65
2021/05/14 06:57:32;;;;;;;17.70;11.97;;;;;;;11.71;65.81;100199.97;5100142;28;20206;-65
2021/05/14 06:59:57;;;;;;;15.50;9.70;;;;;;;11.75;66.01;100206.91;5100726;28;20415;-64
2021/05/14 07:02:22;;;;;;;15.07;10.80;;;;;;;12.48;64.01;100197.88;5099926;28;20187;-65
2021/05/14 07:04:48;;;;;;;18.10;11.07;;;;;;;12.30;64.03;100200.59;5113016;28;20183;-64
2021/05/14 07:07:13;;;;;;;14.40;9.33;;;;;;;12.22;64.36;100201.53;5121043;28;20168;-65
2021/05/14 07:09:38;;;;;;;19.50;10.17;;;;;;;11.94;65.36;100201.63;5120430;28;20368;-65
2021/05/14 07:12:04;;;;;;;17.67;11.90;;;;;;;12.34;63.87;100203.16;5120236;28;20243;-65
2021/05/14 07:14:29;;;;;;;13.40;10.13;;;;;;;12.02;64.71;100205.09;5120680;28;20603;-65
2021/05/14 07:16:54;;;;;;;14.33;10.93;;;;;;;12.73;62.80;100195.91;5119989;27;20159;-64
2021/05/14 07:19:20;;;;;;;17.07;10.50;;;;;;;12.51;63.14;100197.84;5119952;28;20485;-64
2021/05/14 07:21:45;;;;;;;19.57;10.47;;;;;;;12.69;63.54;100208.19;5120431;28;20160;-65
2021/05/14 07:24:11;;;;;;;16.93;10.13;;;;;;;12.65;62.90;100206.47;5119869;28;20222;-65
2021/05/14 07:26:36;;;;;;;20.73;11.13;;;;;;;12.63;63.39;100213.44;5120083;28;20171;-65
2021/05/14 07:29:03;;;;;;;17.40;10.10;;;;;;;12.33;63.43;100209.31;5120366;28;20187;-65
2021/05/14 07:31:29;;;;;;;14.90;9.80;;;;;;;12.76;62.91;100224.69;5119614;28;20174;-65
2021/05/14 07:33:54;;;;;;;19.10;11.60;;;;;;;12.90;63.52;100219.34;5119088;28;20392;-65
2021/05/14 07:36:20;;;;;;;16.73;9.80;;;;;;;12.78;63.65;100222.91;5102776;28;20509;-65
2021/05/14 07:38:45;;;;;;;13.73;9.13;;;;;;;12.33;63.76;100211.91;5099471;28;20168;-65
2021/05/14 07:41:11;;;;;;;17.40;9.53;;;;;;;12.26;64.54;100218.91;5099077;28;20225;-64
2021/05/14 07:43:36;;;;;;;15.93;10.10;;;;;;;12.35;64.02;100216.22;5099730;28;20156;-65
2021/05/14 07:46:02;;;;;;;17.60;10.53;;;;;;;12.12;64.48;100216.34;5099386;28;20678;-65
2021/05/14 07:48:28;;;;;;;12.67;8.53;;;;;;;12.42;63.13;100211.81;5099290;28;20472;-65
2021/05/14 07:50:53;;;;;;;16.07;9.77;;;;;;;12.54;62.96;100213.50;5099490;28;20519;-66
2021/05/14 07:53:19;;;;;;;19.20;10.00;;;;;;;12.33;63.25;100214.53;5098752;28;20442;-65
2021/05/14 07:55:44;;;;;;;15.67;9.53;;;;;;;12.34;63.06;100222.34;5098543;28;20530;-65
2021/05/14 07:58:10;;;;;;;13.03;8.60;;;;;;;12.39;63.08;100220.56;5099694;28;20252;-65
2021/05/14 08:00:35;;;;;;;18.30;9.80;;;;;;;12.71;62.22;100222.09;5098951;28;20192;-65
2021/05/14 08:03:00;;;;;;;14.63;10.00;;;;;;;12.58;63.97;100223.06;5098863;28;20168;-64
2021/05/14 08:05:26;;;;;;;14.10;10.20;;;;;;;12.10;65.06;100218.97;5099373;28;20212;-65
2021/05/14 08:08:14;;;;;;;19.27;10.60;;;;;;;12.55;64.86;100231.78;5098566;28;20196;-64
2021/05/14 08:10:40;;;;;;;20.40;11.10;;;;;;;12.21;65.12;100231.13;5098488;28;20209;-64
2021/05/14 08:13:05;;;;;;;16.23;11.20;;;;;;;12.15;65.41;100233.78;5098385;28;20461;-64
2021/05/14 08:15:31;;;;;;;18.40;10.73;;;;;;;11.92;66.53;100234.69;5098355;28;20168;-63
2021/05/14 08:17:57;;;;;;;18.90;11.50;;;;;;;11.83;66.99;100240.00;5111588;28;20476;-63
2021/05/14 08:20:23;;;;;;;21.13;12.50;;;;;;;11.92;66.02;100239.94;5118922;28;20179;-63
2021/05/14 08:22:49;;;;;;;19.40;11.80;;;;;;;11.87;66.39;100252.16;5118706;28;20164;-64
2021/05/14 08:25:14;;;;;;;25.27;11.20;;;;;;;12.42;65.26;100248.44;5118787;28;20464;-63
2021/05/14 08:27:40;;;;;;;18.20;11.60;;;;;;;12.15;65.29;100252.94;5118916;28;20453;-64
2021/05/14 08:30:07;;;;;;;16.80;11.27;;;;;;;11.95;66.58;100251.28;5119140;28;20220;-64
2021/05/14 08:32:32;;;;;;;16.30;10.83;;;;;;;11.87;66.72;100246.94;5118504;28;20208;-64
2021/05/14 08:34:58;;;;;;;16.90;10.40;;;;;;;11.79;67.25;100245.19;5118644;28;20424;-65
2021/05/14 08:37:24;;;;;;;16.43;10.77;;;;;;;12.06;67.63;100250.38;5118772;28;20220;-64
2021/05/14 08:39:49;;;;;;;23.90;11.40;;;;;;;12.04;67.50;100245.16;5117966;28;20167;-63
2021/05/14 08:42:14;;;;;;;17.80;10.20;;;;;;;11.87;67.99;100244.31;5118907;28;20164;-63
2021/05/14 08:44:40;;;;;;;19.83;11.10;;;;;;;11.62;68.96;100253.09;5118843;28;20163;-64
2021/05/14 08:47:06;;;;;;;16.33;10.67;;;;;;;11.63;68.71;100249.59;5118443;28;20204;-64
2021/05/14 08:49:32;;;;;;;17.70;10.90;;;;;;;11.72;67.78;100255.69;5118538;28;20457;-64
2021/05/14 08:52:00;;;;;;;16.47;11.77;;;;;;;12.12;67.07;100256.44;5118713;28;20437;-65
2021/05/14 08:54:27;;;;;;;19.60;13.37;;;;;;;12.07;68.11;100249.47;5117771;28;20409;-64
2021/05/14 08:56:52;;;;;;;17.00;11.70;;;;;;;12.23;67.56;100247.66;5118528;28;20419;-65
2021/05/14 08:59:18;;;;;;;17.50;10.93;;;;;;;11.97;67.94;100253.88;5118841;28;20405;-63
2021/05/14 09:01:43;;;;;;;17.70;11.60;;;;;;;11.83;69.54;100246.06;5118418;28;20170;-63
2021/05/14 09:04:11;;;;;;;16.97;11.77;;;;;;;11.80;69.55;100251.31;5118266;28;20168;-63
2021/05/14 09:06:40;;;;;;;24.13;13.97;;;;;;;11.83;69.99;100247.81;5118717;28;20174;-64
2021/05/14 09:09:10;;;;;;;17.30;11.63;;;;;;;11.36;71.17;100258.34;5118973;28;20457;-65
2021/05/14 09:11:44;;;;;;;24.40;13.30;;;;;;;11.51;70.11;100249.63;5127270;28;20424;-65
2021/05/14 09:14:47;;;;;;;16.30;11.73;;;;;;;11.51;70.80;100254.00;5129904;27;20428;-65
2021/05/14 09:17:17;;;;;;;19.47;11.27;;;;;;;11.74;70.48;100257.41;5117884;28;20391;-64
2021/05/14 09:19:47;;;;;;;18.03;12.40;;;;;;;12.00;69.42;100253.00;5118042;28;20496;-65
2021/05/14 09:22:18;;;;;;;16.50;12.00;;;;;;;11.70;69.98;100247.84;5117959;28;20414;-63
2021/05/14 09:24:46;;;;;;;21.60;12.47;;;;;;;11.79;69.92;100252.19;5117902;28;20424;-66
2021/05/14 09:27:32;;;;;;;20.67;13.43;;;;;;;11.96;69.98;100254.75;5117763;28;20413;-65
2021/05/14 09:29:58;;;;;;;16.40;12.27;;;;;;;11.60;71.55;100261.81;5118186;28;20462;-65
2021/05/14 09:32:26;;;;;;;19.63;12.80;;;;;;;11.82;70.97;100266.97;5117997;28;20387;-65
2021/05/14 09:34:54;;;;;;;19.93;13.17;;;;;;;11.65;70.81;100277.44;5117713;28;20416;-64
2021/05/14 09:37:20;;;;;;;18.47;13.13;;;;;;;11.72;69.88;100271.34;5118020;28;20459;-65
2021/05/14 09:39:46;;;;;;;20.20;13.30;;;;;;;11.29;72.33;100277.50;5118279;28;20413;-64
2021/05/14 09:42:11;;;;;;;18.87;12.30;;;;;;;11.28;71.84;100279.25;5117262;28;20174;-64
2021/05/14 09:44:36;;;;;;;24.57;13.50;;;;;;;11.67;70.63;100279.19;5117729;28;20460;-64
2021/05/14 09:47:02;;;;;;;18.87;11.90;;;;;;;11.19;72.02;100283.59;5105184;28;20183;-64
2021/05/14 09:49:29;;;;;;;20.63;13.07;;;;;;;11.39;71.82;100281.84;5117027;28;20492;-63
2021/05/14 09:51:54;;;;;;;20.03;13.80;;;;;;;11.51;71.36;100277.47;5110418;28;20274;-63
2021/05/14 09:54:26;;;;;;;17.60;13.40;;;;;;;10.71;73.30;100292.25;5097646;28;20468;-63
2021/05/14 09:59:54;;;;;;;18.10;12.90;;;;;;;11.06;71.86;100282.75;5097053;28;20393;-63
2021/05/14 10:02:24;;;;;;;21.73;12.70;;;;;;;11.19;71.52;100281.88;5097189;28;20698;-64
2021/05/14 10:04:50;;;;;;;21.43;14.20;;;;;;;11.04;71.63;100277.53;5109770;28;20387;-63
2021/05/14 10:07:16;;;;;;;16.90;12.27;;;;;;;11.14;72.08;100282.75;5117664;28;20416;-63
2021/05/14 10:09:41;;;;;;;20.33;11.57;;;;;;;11.39;71.39;100280.97;5117541;28;20417;-63
2021/05/14 10:12:08;;;;;;;18.70;13.23;;;;;;;11.42;71.00;100281.84;5117432;28;20171;-62
2021/05/14 10:14:33;;;;;;;18.47;13.03;;;;;;;11.48;71.49;100283.56;5117925;28;20164;-63
2021/05/14 10:17:00;;;;;;;36.20;14.17;;;;;;;11.59;70.44;100284.41;5119502;28;20399;-62
2021/05/14 10:19:25;;;;;;;18.70;12.07;;;;;;;11.68;70.53;100286.16;5118647;28;20218;-62
2021/05/14 10:21:51;;;;;;;20.27;13.00;;;;;;;11.66;70.01;100287.03;5116891;28;20411;-62
2021/05/14 10:25:00;;;;;;;21.13;15.03;;;;;;;11.42;70.58;100288.78;5121138;28;20330;-62
2021/05/14 10:27:27;;;;;;;17.20;11.57;;;;;;;11.36;70.90;100291.44;5121703;28;20694;-65
2021/05/14 10:30:03;;;;;;;18.50;11.10;;;;;;;11.59;70.53;100294.84;5121219;28;20418;-63
2021/05/14 10:32:49;;;;;;;17.60;11.40;;;;;;;11.75;69.80;100298.31;5120567;28;20466;-64
2021/05/14 10:35:16;;;;;;;22.97;12.07;;;;;;;11.34;71.14;100298.38;5120266;28;20416;-63
2021/05/14 10:37:54;;;;;;;24.00;21.47;;;;;;;11.33;70.82;100299.25;5121196;28;20479;-63
2021/05/14 10:40:37;;;;;;;21.73;12.10;;;;;;;11.24;71.28;100298.41;5121228;27;20395;-62
2021/05/14 10:43:18;;;;;;;17.90;12.43;;;;;;;11.45;70.41;100294.88;5121131;28;20384;-64
2021/05/14 10:45:48;;;;;;;20.00;10.70;;;;;;;11.51;70.32;100295.75;5110656;28;20514;-63
2021/05/14 10:48:18;;;;;;;21.40;11.50;;;;;;;11.55;70.43;100302.72;5107052;28;20558;-63
2021/05/14 10:50:46;;;;;;;15.33;11.97;;;;;;;11.49;69.85;100300.09;5120823;28;20413;-63
2021/05/14 10:56:08;;;;;;;23.70;12.57;;;;;;;11.52;70.08;100302.72;5111007;28;20452;-63
2021/05/14 10:58:43;;;;;;;19.50;12.70;;;;;;;11.75;70.29;100293.09;5102183;28;20469;-63
2021/05/14 11:01:26;;;;;;;15.80;12.93;;;;;;;12.00;69.34;100295.69;5104931;28;20444;-63
2021/05/14 11:03:51;;;;;;;18.73;12.13;;;;;;;11.97;69.79;100290.44;5103872;28;20393;-63
2021/05/14 11:06:17;;;;;;;18.20;11.50;;;;;;;11.99;69.32;100293.06;5117260;28;20429;-63
2021/05/14 11:09:04;;;;;;;21.77;12.43;;;;;;;11.70;70.31;100292.22;5109518;28;20200;-63
2021/05/14 11:11:29;;;;;;;17.93;12.33;;;;;;;11.82;69.55;100300.91;5125083;27;20471;-63
2021/05/14 11:13:55;;;;;;;19.97;12.10;;;;;;;12.13;70.29;100299.09;5130622;27;20519;-62
2021/05/14 11:16:38;;;;;;;18.20;12.40;;;;;;;11.91;70.46;100304.38;5120742;28;20251;-64